Time;durP1;ratioP1;P1;durP2;ratioP2;P2;SDS_P1;SDS_P2;PMS_P1;PMS_P2;Temp;Humidity;BMP_temperature;BMP_pressure;BME280_temperature;BME280_humidity;BME280_pressure;Samples;Min_cycle;Max_cycle;Signal;HPM_P1;HPM_P2
2023/04/07 00:00:19;;;;;;;17.08;15.27;;;;;;;2.38;66.22;98282.13;5010947;28;20030;-76
2023/04/07 00:02:45;;;;;;;16.45;14.75;;;;;;;2.53;65.27;98274.94;4965585;28;20049;-77
2023/04/07 00:05:11;;;;;;;16.20;14.27;;;;;;;2.29;64.77;98282.47;4981786;28;20026;-76
2023/04/07 00:07:36;;;;;;;19.15;15.55;;;;;;;2.34;65.31;98291.50;4972221;28;20040;-76
2023/04/07 00:10:02;;;;;;;16.40;14.70;;;;;;;2.00;66.96;98291.38;5004188;28;20025;-77
2023/04/07 00:12:27;;;;;;;18.60;15.73;;;;;;;1.75;66.17;98296.19;4972179;28;20042;-77
2023/04/07 00:14:53;;;;;;;18.33;15.88;;;;;;;1.95;66.11;98301.72;4971554;28;20041;-76
2023/04/07 00:17:18;;;;;;;18.02;15.85;;;;;;;2.14;64.43;98301.13;5010302;28;20034;-76
2023/04/07 00:19:43;;;;;;;17.70;15.50;;;;;;;2.13;64.47;98291.50;4978099;28;20031;-76
2023/04/07 00:22:09;;;;;;;16.92;15.07;;;;;;;1.97;65.34;98294.41;4984360;28;20377;-76
2023/04/07 00:24:34;;;;;;;17.88;15.85;;;;;;;1.93;65.00;98287.81;4977849;28;20088;-77
2023/04/07 00:27:00;;;;;;;20.33;17.90;;;;;;;2.10;64.95;98289.25;4971886;28;20042;-77
2023/04/07 00:29:25;;;;;;;20.20;17.80;;;;;;;2.22;65.06;98274.41;4970986;28;20155;-77
2023/04/07 00:31:51;;;;;;;20.25;18.17;;;;;;;2.21;65.99;98277.28;4967083;28;20123;-75
2023/04/07 00:34:17;;;;;;;20.67;18.58;;;;;;;2.09;65.01;98274.31;5001675;28;20099;-76
2023/04/07 00:36:42;;;;;;;21.08;18.23;;;;;;;1.93;65.67;98261.28;4988128;28;20042;-75
2023/04/07 00:39:08;;;;;;;18.92;15.63;;;;;;;1.62;67.43;98273.97;5000945;28;20025;-76
2023/04/07 00:41:34;;;;;;;17.80;15.80;;;;;;;1.49;67.74;98271.16;5000937;28;20038;-77
2023/04/07 00:44:00;;;;;;;16.73;15.02;;;;;;;1.57;67.86;98265.75;4985000;28;20033;-76
2023/04/07 00:46:25;;;;;;;16.27;14.55;;;;;;;1.58;68.52;98264.75;4988178;28;20035;-76
2023/04/07 00:48:51;;;;;;;17.48;15.60;;;;;;;1.56;67.27;98264.09;5001301;28;20115;-77
2023/04/07 00:51:19;;;;;;;18.45;16.50;;;;;;;1.64;67.71;98256.03;4984396;28;20030;-76
2023/04/07 00:53:44;;;;;;;21.85;17.60;;;;;;;1.45;68.55;98256.63;4981579;28;20027;-76
2023/04/07 00:56:10;;;;;;;17.17;15.38;;;;;;;1.57;67.87;98252.47;5007447;28;20109;-76
2023/04/07 00:58:35;;;;;;;17.80;15.52;;;;;;;1.48;68.03;98240.31;4990277;28;20494;-76
2023/04/07 01:01:05;;;;;;;22.20;19.88;;;;;;;1.67;67.26;98250.34;4984249;28;20184;-75
2023/04/07 01:03:40;;;;;;;18.30;16.35;;;;;;;1.59;67.01;98245.16;5013473;28;20105;-75
2023/04/07 01:06:07;;;;;;;18.48;16.50;;;;;;;1.57;67.48;98248.00;4988955;28;20048;-75
2023/04/07 01:08:47;;;;;;;19.23;17.20;;;;;;;1.21;68.45;98245.28;4984323;28;20105;-75
2023/04/07 01:11:26;;;;;;;18.17;16.27;;;;;;;1.36;68.79;98242.63;4981006;28;20034;-75
2023/04/07 01:13:53;;;;;;;17.85;15.63;;;;;;;1.24;69.01;98244.94;4987263;28;20121;-75
2023/04/07 01:16:31;;;;;;;18.77;16.77;;;;;;;1.01;69.56;98244.22;4991876;28;20021;-75
2023/04/07 01:19:05;;;;;;;19.80;17.63;;;;;;;1.04;69.35;98243.03;4987802;28;20403;-76
2023/04/07 01:21:33;;;;;;;20.15;17.20;;;;;;;1.13;69.88;98248.06;4996774;28;20039;-75
2023/04/07 01:24:12;;;;;;;20.77;17.02;;;;;;;1.12;69.26;98246.38;4969370;28;20395;-76
2023/04/07 01:26:38;;;;;;;20.05;17.90;;;;;;;1.00;70.81;98247.88;4984187;28;20041;-76
2023/04/07 01:29:30;;;;;;;19.23;17.23;;;;;;;1.04;70.75;98237.72;4984258;28;20454;-76
2023/04/07 01:31:57;;;;;;;18.38;16.42;;;;;;;1.11;69.52;98239.47;4974004;28;20035;-76
2023/04/07 01:34:25;;;;;;;20.05;16.77;;;;;;;1.22;69.20;98243.47;5006621;28;20033;-76
2023/04/07 01:36:51;;;;;;;17.77;15.93;;;;;;;1.32;69.30;98247.50;5000560;28;20450;-76
2023/04/07 01:39:16;;;;;;;18.35;16.48;;;;;;;1.28;68.94;98235.59;4981131;28;20534;-77
2023/04/07 01:41:42;;;;;;;20.98;16.75;;;;;;;1.15;69.96;98237.25;4970104;28;20146;-77
2023/04/07 01:44:09;;;;;;;18.80;16.90;;;;;;;1.31;68.12;98235.22;4999182;28;20026;-76
2023/04/07 01:46:35;;;;;;;17.58;15.70;;;;;;;1.34;68.86;98248.13;4983985;28;20038;-76
2023/04/07 01:49:00;;;;;;;20.25;15.85;;;;;;;1.32;68.35;98244.00;4980390;28;20027;-76
2023/04/07 01:51:27;;;;;;;20.30;15.80;;;;;;;1.28;68.68;98240.09;4970334;28;20031;-76
2023/04/07 01:53:53;;;;;;;18.08;15.73;;;;;;;1.32;68.75;98239.53;5006121;28;20034;-76
2023/04/07 01:56:18;;;;;;;18.13;15.85;;;;;;;1.49;67.46;98226.88;4983927;28;20443;-76
2023/04/07 01:58:49;;;;;;;19.33;16.42;;;;;;;1.60;66.85;98238.84;4996156;28;20026;-74
2023/04/07 02:01:17;;;;;;;21.63;15.90;;;;;;;1.55;67.21;98230.59;4984747;28;20032;-74
2023/04/07 02:03:52;;;;;;;20.77;15.88;;;;;;;1.67;67.28;98234.44;4995081;28;20026;-75
2023/04/07 02:06:21;;;;;;;17.17;15.30;;;;;;;1.33;68.96;98233.22;4985448;28;20038;-75
2023/04/07 02:08:50;;;;;;;19.90;16.58;;;;;;;1.28;68.19;98232.94;4993751;28;20040;-75
2023/04/07 02:11:17;;;;;;;18.75;16.58;;;;;;;1.18;68.92;98229.75;4986041;28;20606;-75
2023/04/07 02:13:44;;;;;;;19.60;17.15;;;;;;;1.23;68.80;98219.44;4976555;28;20019;-75
2023/04/07 02:16:12;;;;;;;18.77;16.42;;;;;;;1.20;68.58;98206.53;4986988;28;20034;-75
2023/04/07 02:18:38;;;;;;;18.35;16.45;;;;;;;1.11;69.54;98218.25;4999153;28;20437;-74
2023/04/07 02:21:04;;;;;;;17.20;15.38;;;;;;;1.31;68.61;98219.31;4979725;28;20041;-75
2023/04/07 02:23:30;;;;;;;18.40;16.20;;;;;;;1.14;68.78;98217.06;4989020;28;20018;-74
2023/04/07 02:25:57;;;;;;;18.50;16.45;;;;;;;1.16;69.14;98210.56;4995843;28;20033;-74
2023/04/07 02:28:22;;;;;;;18.00;15.93;;;;;;;1.29;68.73;98210.72;4999225;28;20025;-75
2023/04/07 02:30:48;;;;;;;18.73;16.75;;;;;;;1.18;68.42;98189.16;4982595;28;20047;-75
2023/04/07 02:33:13;;;;;;;17.88;15.98;;;;;;;1.05;70.45;98202.25;4972957;28;20026;-77
2023/04/07 02:35:41;;;;;;;20.98;18.83;;;;;;;0.34;72.27;98210.78;4986638;28;20053;-77
2023/04/07 02:38:07;;;;;;;21.58;17.85;;;;;;;0.12;73.07;98215.09;4992381;28;20031;-78
2023/04/07 02:40:35;;;;;;;19.33;17.30;;;;;;;0.80;70.71;98204.34;4986240;28;20083;-76
2023/04/07 02:43:01;;;;;;;18.63;16.63;;;;;;;0.71;70.54;98197.50;4966160;28;20022;-77
2023/04/07 02:45:26;;;;;;;19.80;17.90;;;;;;;0.69;70.46;98197.69;4982491;28;20034;-76
2023/04/07 02:47:51;;;;;;;20.73;18.52;;;;;;;0.46;71.63;98204.88;5002103;28;20113;-75
2023/04/07 02:50:17;;;;;;;20.08;18.02;;;;;;;0.41;71.67;98198.47;5001588;28;20041;-74
2023/04/07 02:52:42;;;;;;;21.50;19.05;;;;;;;0.53;71.89;98207.63;4995212;28;20147;-75
2023/04/07 02:55:11;;;;;;;20.63;18.23;;;;;;;0.68;71.45;98205.81;4982196;28;20110;-75
2023/04/07 02:57:37;;;;;;;20.73;18.50;;;;;;;0.79;70.43;98202.72;4969321;28;20517;-74
2023/04/07 03:00:08;;;;;;;22.48;18.63;;;;;;;0.86;69.81;98201.00;4993510;28;20037;-77
2023/04/07 03:02:51;;;;;;;21.17;18.98;;;;;;;0.89;70.56;98207.75;4985844;28;20048;-75
2023/04/07 03:05:18;;;;;;;20.85;18.65;;;;;;;0.89;70.71;98197.94;4998385;28;20038;-75
2023/04/07 03:07:44;;;;;;;20.92;17.65;;;;;;;0.87;70.87;98194.66;4979072;28;20079;-75
2023/04/07 03:10:10;;;;;;;20.58;18.48;;;;;;;0.86;71.03;98195.69;4998481;28;20037;-75
2023/04/07 03:12:35;;;;;;;20.17;16.95;;;;;;;0.87;70.80;98197.31;5005651;28;20085;-74
2023/04/07 03:15:01;;;;;;;17.45;15.50;;;;;;;1.14;70.42;98196.66;4976456;28;20050;-74
2023/04/07 03:17:27;;;;;;;21.88;18.15;;;;;;;0.85;70.60;98191.38;4994723;28;20037;-73
2023/04/07 03:19:53;;;;;;;19.75;17.63;;;;;;;0.79;71.54;98200.06;4976754;28;20033;-74
2023/04/07 03:22:18;;;;;;;20.30;18.30;;;;;;;0.76;72.05;98191.66;5006187;28;20033;-74
2023/04/07 03:24:48;;;;;;;20.00;17.40;;;;;;;0.77;71.49;98188.81;4978058;28;20061;-74
2023/04/07 03:27:16;;;;;;;21.80;17.73;;;;;;;0.94;71.24;98190.28;4976957;28;20451;-74
2023/04/07 03:29:44;;;;;;;20.65;18.00;;;;;;;0.83;71.33;98193.38;4963735;28;20037;-74
2023/04/07 03:32:12;;;;;;;19.88;17.73;;;;;;;0.99;70.16;98185.25;5009138;28;20030;-74
2023/04/07 03:34:38;;;;;;;21.50;18.33;;;;;;;0.63;71.80;98192.31;4978580;28;20077;-74
2023/04/07 03:37:03;;;;;;;20.20;18.10;;;;;;;0.32;73.28;98196.91;4986086;28;20030;-74
2023/04/07 03:39:32;;;;;;;22.17;18.80;;;;;;;0.54;71.74;98188.06;4990820;28;20400;-74
2023/04/07 03:41:59;;;;;;;20.10;18.00;;;;;;;0.60;71.25;98197.94;5010776;28;20549;-74
2023/04/07 03:44:28;;;;;;;21.55;19.05;;;;;;;0.68;71.99;98195.19;4965706;28;20041;-74
2023/04/07 03:46:53;;;;;;;20.60;18.50;;;;;;;0.38;72.04;98204.13;4981817;28;20027;-75
2023/04/07 03:49:21;;;;;;;21.02;18.88;;;;;;;0.57;73.10;98193.00;4984798;28;20121;-74
2023/04/07 03:51:48;;;;;;;22.20;19.90;;;;;;;0.57;72.38;98193.00;5000844;28;20029;-75
2023/04/07 03:54:16;;;;;;;22.27;20.02;;;;;;;0.65;71.25;98195.59;4981525;28;20040;-75
2023/04/07 03:56:43;;;;;;;21.85;19.67;;;;;;;0.58;70.80;98199.97;4981117;28;20031;-74
2023/04/07 03:59:09;;;;;;;20.92;18.40;;;;;;;0.66;71.03;98197.22;5001478;28;20034;-75
2023/04/07 04:01:39;;;;;;;21.20;18.88;;;;;;;0.73;71.71;98192.00;5001803;28;20026;-74
2023/04/07 04:04:10;;;;;;;19.35;17.20;;;;;;;0.75;71.66;98197.97;4981788;28;20033;-74
2023/04/07 04:06:35;;;;;;;19.75;17.75;;;;;;;0.77;71.45;98194.09;4979909;28;20046;-74
2023/04/07 04:09:27;;;;;;;21.23;18.55;;;;;;;0.52;73.38;98198.03;5000708;28;20049;-74
2023/04/07 04:11:52;;;;;;;22.45;20.23;;;;;;;0.54;73.00;98199.50;4980267;28;20034;-74
2023/04/07 04:14:18;;;;;;;21.02;18.98;;;;;;;0.62;72.33;98202.06;4975225;28;20033;-74
2023/04/07 04:16:50;;;;;;;19.70;17.88;;;;;;;0.67;71.42;98196.22;4992635;28;20029;-74
2023/04/07 04:19:38;;;;;;;21.10;19.10;;;;;;;0.53;73.35;98186.44;5007143;28;20044;-74
2023/04/07 04:22:24;;;;;;;22.45;20.23;;;;;;;0.42;73.29;98190.34;4991668;28;20526;-74
2023/04/07 04:24:53;;;;;;;23.33;21.13;;;;;;;0.37;73.13;98194.53;4998183;28;20034;-74
2023/04/07 04:27:20;;;;;;;22.02;19.85;;;;;;;0.47;73.02;98195.09;4998260;28;20391;-74
2023/04/07 04:29:51;;;;;;;23.10;20.75;;;;;;;0.20;74.02;98193.88;4980534;28;20137;-74
2023/04/07 04:32:22;;;;;;;22.70;20.60;;;;;;;0.31;72.78;98182.00;4989539;28;20096;-75
2023/04/07 04:34:48;;;;;;;21.50;19.30;;;;;;;0.64;71.50;98184.16;4991369;28;20408;-76
2023/04/07 04:37:14;;;;;;;20.20;17.95;;;;;;;0.38;72.44;98182.94;4995207;28;20026;-76
2023/04/07 04:39:42;;;;;;;23.30;21.02;;;;;;;0.48;72.84;98178.19;4998157;28;20037;-76
2023/04/07 04:42:10;;;;;;;21.60;19.45;;;;;;;0.57;72.84;98182.41;5003537;28;20045;-77
2023/04/07 04:44:36;;;;;;;21.48;19.27;;;;;;;0.75;71.66;98190.81;4987772;28;20493;-77
2023/04/07 04:47:04;;;;;;;23.17;20.65;;;;;;;0.33;73.16;98195.88;4973655;28;20022;-77
2023/04/07 04:49:30;;;;;;;22.17;20.13;;;;;;;0.53;73.21;98175.84;5009837;28;20121;-76
2023/04/07 04:51:59;;;;;;;22.80;20.70;;;;;;;0.66;72.88;98178.66;4989806;28;20091;-77
2023/04/07 04:54:25;;;;;;;24.13;21.92;;;;;;;0.53;72.31;98181.13;5010827;28;20038;-78
2023/04/07 04:56:52;;;;;;;24.08;21.63;;;;;;;0.63;73.32;98192.31;4994052;28;20113;-78
2023/04/07 04:59:17;;;;;;;23.55;21.10;;;;;;;0.79;73.20;98196.59;4974098;28;20065;-77
2023/04/07 05:01:57;;;;;;;23.70;21.40;;;;;;;0.81;71.92;98184.81;4987132;28;20049;-77
2023/04/07 05:04:22;;;;;;;23.35;21.10;;;;;;;0.82;71.81;98182.97;4997292;28;20065;-77
2023/04/07 05:06:57;;;;;;;22.05;19.85;;;;;;;1.12;70.84;98177.44;4968625;28;20065;-76
2023/04/07 05:09:26;;;;;;;22.98;20.58;;;;;;;1.27;69.85;98185.38;4986533;28;20041;-75
2023/04/07 05:11:51;;;;;;;24.67;20.33;;;;;;;1.33;70.91;98182.81;4990613;28;20033;-76
2023/04/07 05:14:17;;;;;;;25.98;23.27;;;;;;;1.13;70.59;98168.50;4993940;28;20038;-76
2023/04/07 05:16:49;;;;;;;25.85;23.15;;;;;;;1.49;70.01;98183.59;4976247;28;20026;-75
2023/04/07 05:19:19;;;;;;;26.10;23.60;;;;;;;1.55;69.61;98177.53;4987737;28;20381;-76
2023/04/07 05:21:46;;;;;;;21.95;19.52;;;;;;;1.61;69.58;98182.09;4981489;28;20064;-76
2023/04/07 05:24:12;;;;;;;21.73;19.42;;;;;;;1.69;69.73;98189.94;4986812;28;20029;-76
2023/04/07 05:26:38;;;;;;;22.45;18.42;;;;;;;1.90;69.74;98187.28;4978107;28;20045;-76
2023/04/07 05:29:04;;;;;;;20.17;18.08;;;;;;;1.97;68.45;98183.69;4997265;28;20030;-76
2023/04/07 05:31:30;;;;;;;19.83;17.95;;;;;;;1.97;69.57;98183.69;4983753;28;20050;-76
2023/04/07 05:33:57;;;;;;;20.75;18.55;;;;;;;2.11;68.69;98179.31;5003642;28;20026;-76
2023/04/07 05:36:26;;;;;;;21.92;19.63;;;;;;;1.74;70.77;98176.94;4990907;28;20042;-77
2023/04/07 05:38:54;;;;;;;20.73;18.50;;;;;;;2.21;68.96;98185.13;4987787;28;20030;-76
2023/04/07 05:41:20;;;;;;;18.85;16.95;;;;;;;2.40;67.61;98179.16;4980448;28;20100;-76
2023/04/07 05:43:45;;;;;;;18.70;16.52;;;;;;;2.52;67.06;98168.81;4983550;28;20026;-76
2023/04/07 05:46:12;;;;;;;18.95;16.13;;;;;;;2.77;66.78;98176.13;4987452;28;20113;-76
2023/04/07 05:48:46;;;;;;;19.40;17.33;;;;;;;2.88;65.89;98176.59;4989445;28;20029;-76
2023/04/07 05:51:12;;;;;;;19.73;17.40;;;;;;;3.01;65.79;98166.03;4980436;28;20104;-76
2023/04/07 05:53:37;;;;;;;19.50;16.40;;;;;;;2.82;66.38;98177.38;4982253;28;20472;-76
2023/04/07 05:56:04;;;;;;;20.02;16.77;;;;;;;2.94;67.07;98186.47;4986958;28;20047;-76
2023/04/07 05:58:40;;;;;;;19.88;17.40;;;;;;;2.78;66.33;98187.56;4990629;28;20439;-76
2023/04/07 06:01:07;;;;;;;19.00;16.20;;;;;;;2.83;65.53;98184.31;4998443;28;20391;-75
2023/04/07 06:03:33;;;;;;;18.40;16.33;;;;;;;2.78;64.90;98183.09;4980834;28;20026;-76
2023/04/07 06:06:10;;;;;;;19.95;16.55;;;;;;;2.65;64.44;98188.31;4997956;28;20076;-75
2023/04/07 06:08:36;;;;;;;18.67;15.85;;;;;;;2.57;65.59;98183.16;4983151;28;20061;-75
2023/04/07 06:11:01;;;;;;;17.98;15.70;;;;;;;2.62;65.92;98183.41;4985853;28;20038;-76
2023/04/07 06:13:27;;;;;;;20.55;15.85;;;;;;;2.94;65.78;98186.47;4980333;28;20035;-75
2023/04/07 06:15:55;;;;;;;18.95;16.55;;;;;;;3.05;68.01;98193.88;5001062;28;20036;-77
2023/04/07 06:18:20;;;;;;;18.02;16.13;;;;;;;3.11;66.17;98187.75;4984006;28;20036;-78
2023/04/07 06:20:46;;;;;;;18.33;16.00;;;;;;;3.15;66.22;98189.03;4980052;28;20420;-75
2023/04/07 06:23:11;;;;;;;19.10;15.77;;;;;;;3.45;65.45;98180.53;4981213;28;20031;-76
2023/04/07 06:25:36;;;;;;;16.80;15.00;;;;;;;3.43;65.98;98192.41;4982878;28;20476;-76
2023/04/07 06:28:02;;;;;;;16.70;15.00;;;;;;;3.36;66.88;98186.25;4989518;28;20546;-76
2023/04/07 06:30:27;;;;;;;19.67;15.77;;;;;;;3.71;65.96;98185.09;4984442;28;20022;-76
2023/04/07 06:32:53;;;;;;;17.27;15.48;;;;;;;3.70;66.20;98183.50;4972857;28;20034;-76
2023/04/07 06:35:20;;;;;;;18.50;15.45;;;;;;;3.80;65.46;98183.94;4993420;28;20029;-77
2023/04/07 06:37:45;;;;;;;17.75;14.57;;;;;;;3.39;67.18;98188.50;4998990;28;20185;-76
2023/04/07 06:40:10;;;;;;;16.67;14.95;;;;;;;3.42;65.49;98191.59;4973489;28;20106;-76
2023/04/07 06:42:36;;;;;;;17.33;14.85;;;;;;;3.60;65.09;98188.38;4989238;28;20038;-76
2023/04/07 06:45:09;;;;;;;18.70;14.85;;;;;;;3.68;66.44;98185.53;4992354;28;20476;-75
2023/04/07 06:47:35;;;;;;;18.55;14.73;;;;;;;3.86;65.00;98185.78;4981027;28;20038;-77
2023/04/07 06:50:00;;;;;;;16.33;14.57;;;;;;;4.01;64.41;98180.28;4984566;28;20031;-77
2023/04/07 06:52:25;;;;;;;18.92;14.68;;;;;;;4.12;63.71;98175.16;4990480;28;20045;-77
2023/04/07 06:54:51;;;;;;;16.52;14.05;;;;;;;4.57;63.00;98184.19;5004088;28;20033;-77
2023/04/07 06:57:16;;;;;;;16.25;14.55;;;;;;;4.47;62.39;98181.09;4972902;28;20037;-76
2023/04/07 06:59:41;;;;;;;24.15;18.98;;;;;;;4.43;62.86;98179.88;4983899;28;20026;-77
2023/04/07 07:02:07;;;;;;;22.48;17.38;;;;;;;4.43;63.60;98179.88;4978832;28;20128;-78
2023/04/07 07:04:33;;;;;;;18.70;16.10;;;;;;;4.57;63.04;98178.03;4983885;28;20108;-76
2023/04/07 07:06:59;;;;;;;16.30;14.60;;;;;;;4.42;64.27;98177.41;4999258;28;20045;-77
2023/04/07 07:09:26;;;;;;;19.50;15.18;;;;;;;4.45;63.59;98187.66;4968714;28;20027;-77
2023/04/07 07:11:51;;;;;;;17.15;14.65;;;;;;;4.40;63.68;98182.13;4973118;28;20037;-77
2023/04/07 07:14:17;;;;;;;20.02;16.25;;;;;;;4.53;63.93;98184.78;4976033;28;20026;-78
2023/04/07 07:16:42;;;;;;;16.70;14.90;;;;;;;4.79;63.10;98190.09;4989160;28;20043;-78
2023/04/07 07:19:08;;;;;;;17.02;14.90;;;;;;;4.83;62.60;98180.66;5000012;28;20025;-77
2023/04/07 07:21:33;;;;;;;18.33;14.63;;;;;;;5.20;60.76;98171.94;4980517;28;20038;-76
2023/04/07 07:23:59;;;;;;;16.90;14.40;;;;;;;5.13;60.86;98181.81;4985602;28;20121;-76
2023/04/07 07:26:25;;;;;;;17.10;14.98;;;;;;;5.12;60.60;98177.50;4979497;28;20034;-76
2023/04/07 07:28:50;;;;;;;17.10;15.30;;;;;;;5.31;61.78;98179.28;4969889;28;20037;-77
2023/04/07 07:31:16;;;;;;;18.17;14.63;;;;;;;5.30;60.33;98156.28;4976331;28;20050;-77
2023/04/07 07:33:42;;;;;;;15.93;14.32;;;;;;;5.53;59.36;98177.16;4985070;28;20170;-77
2023/04/07 07:36:08;;;;;;;18.48;14.88;;;;;;;5.66;60.19;98176.25;4972392;28;20084;-77
2023/04/07 07:38:34;;;;;;;17.85;14.60;;;;;;;5.86;58.83;98171.66;4983020;28;20018;-77
2023/04/07 07:41:01;;;;;;;17.30;14.07;;;;;;;5.80;59.78;98172.47;4994177;28;20440;-78
2023/04/07 07:43:26;;;;;;;16.00;13.32;;;;;;;5.91;57.89;98174.47;4968591;28;20032;-78
2023/04/07 07:45:53;;;;;;;16.83;13.15;;;;;;;6.09;57.96;98166.56;4966383;28;20039;-77
2023/04/07 07:48:19;;;;;;;16.10;13.30;;;;;;;6.17;57.21;98163.59;5001136;28;20030;-79
2023/04/07 07:50:45;;;;;;;14.90;13.30;;;;;;;6.22;55.40;98166.47;4985180;28;20045;-77
2023/04/07 07:53:12;;;;;;;15.35;13.07;;;;;;;6.42;54.31;98166.31;4969231;28;20019;-78
2023/04/07 07:55:38;;;;;;;15.43;12.35;;;;;;;6.56;53.42;98173.97;4984985;28;20120;-77
2023/04/07 07:58:03;;;;;;;15.55;13.00;;;;;;;6.69;52.83;98173.88;4999545;28;20119;-77
2023/04/07 08:00:29;;;;;;;14.27;12.60;;;;;;;6.69;54.76;98176.56;4964082;28;20042;-76
2023/04/07 08:02:54;;;;;;;14.85;13.25;;;;;;;6.73;53.52;98179.59;5004019;28;20619;-76
2023/04/07 08:05:20;;;;;;;15.82;13.57;;;;;;;7.03;51.67;98179.69;5004231;28;20025;-75
2023/04/07 08:07:45;;;;;;;16.73;13.27;;;;;;;7.30;51.06;98181.06;4998503;28;20458;-75
2023/04/07 08:10:11;;;;;;;16.38;13.10;;;;;;;7.15;52.65;98183.28;4997771;28;20037;-78
2023/04/07 08:12:37;;;;;;;17.13;12.85;;;;;;;7.37;52.69;98187.16;4984750;28;20092;-77
2023/04/07 08:15:03;;;;;;;19.60;13.20;;;;;;;7.50;52.12;98181.63;4982566;28;20110;-77
2023/04/07 08:17:28;;;;;;;14.73;12.15;;;;;;;7.61;49.20;98172.81;5004809;28;20109;-77
2023/04/07 08:19:53;;;;;;;15.70;12.80;;;;;;;7.84;50.28;98177.50;4989959;28;20045;-77
2023/04/07 08:22:19;;;;;;;14.50;12.77;;;;;;;8.00;50.49;98177.69;4967691;28;20025;-77
2023/04/07 08:24:46;;;;;;;16.77;13.35;;;;;;;8.22;50.14;98165.38;4978179;28;20034;-77
2023/04/07 08:27:11;;;;;;;15.68;12.52;;;;;;;8.12;49.08;98170.47;4999812;28;20030;-77
2023/04/07 08:29:37;;;;;;;13.57;12.18;;;;;;;8.07;49.55;98182.94;5010383;28;20056;-77
2023/04/07 08:32:02;;;;;;;13.00;11.23;;;;;;;8.06;48.63;98182.13;4998746;28;20033;-77
2023/04/07 08:34:27;;;;;;;15.02;11.98;;;;;;;8.32;48.94;98175.56;4978533;28;20122;-77
2023/04/07 08:36:53;;;;;;;12.90;11.43;;;;;;;8.12;50.20;98185.75;4984031;28;20066;-77
2023/04/07 08:39:18;;;;;;;11.95;10.50;;;;;;;8.20;50.66;98180.88;4983876;28;20034;-77
2023/04/07 08:41:44;;;;;;;14.02;10.88;;;;;;;8.33;49.53;98167.28;4967994;28;20034;-77
2023/04/07 08:44:10;;;;;;;12.63;10.55;;;;;;;8.46;48.84;98163.56;4977803;28;20676;-76
2023/04/07 08:46:38;;;;;;;12.52;10.80;;;;;;;8.64;48.81;98178.75;4981540;28;20058;-77
2023/04/07 08:49:07;;;;;;;13.15;10.40;;;;;;;8.97;47.96;98171.75;4979884;28;20030;-77
2023/04/07 08:51:33;;;;;;;13.32;11.00;;;;;;;9.29;48.59;98172.19;4969919;28;20022;-78
2023/04/07 08:54:09;;;;;;;13.52;10.90;;;;;;;9.17;48.88;98165.22;5006217;28;20042;-77
2023/04/07 08:56:37;;;;;;;12.38;10.45;;;;;;;9.11;47.73;98168.81;5006757;28;20437;-77
2023/04/07 08:59:05;;;;;;;14.23;11.32;;;;;;;8.91;47.73;98164.63;4997961;28;20030;-77
2023/04/07 09:01:31;;;;;;;14.32;11.07;;;;;;;9.17;48.62;98168.69;4973808;28;20041;-77
2023/04/07 09:03:57;;;;;;;13.13;11.00;;;;;;;8.67;49.46;98168.38;4970169;28;20045;-78
2023/04/07 09:06:23;;;;;;;14.07;11.65;;;;;;;9.37;47.27;98163.75;4989115;28;20379;-76
2023/04/07 09:08:48;;;;;;;13.70;11.32;;;;;;;9.69;47.09;98162.25;4994745;28;20028;-77
2023/04/07 09:11:14;;;;;;;14.18;11.98;;;;;;;9.27;45.91;98168.91;4980384;28;20038;-77
2023/04/07 09:13:39;;;;;;;11.95;10.70;;;;;;;9.88;46.29;98170.13;4979321;28;20122;-77
2023/04/07 09:16:05;;;;;;;15.55;12.52;;;;;;;9.94;45.70;98163.81;4968951;28;20121;-77
2023/04/07 09:18:30;;;;;;;13.45;11.98;;;;;;;9.97;45.50;98168.69;4983321;28;20030;-77
2023/04/07 09:21:01;;;;;;;16.08;11.73;;;;;;;9.77;44.36;98162.94;4992611;28;20037;-77
2023/04/07 09:23:37;;;;;;;14.93;12.23;;;;;;;10.09;43.96;98164.88;4988195;28;20045;-77
2023/04/07 09:26:21;;;;;;;14.98;12.40;;;;;;;10.05;43.87;98173.69;5001128;28;20096;-77
2023/04/07 09:28:49;;;;;;;16.10;13.30;;;;;;;9.63;44.85;98167.78;4975803;28;20042;-77
2023/04/07 09:31:15;;;;;;;15.23;12.10;;;;;;;9.80;43.82;98160.59;4960870;28;20034;-77
2023/04/07 09:33:41;;;;;;;16.17;12.98;;;;;;;10.09;44.61;98164.06;4987845;28;20038;-76
2023/04/07 09:36:06;;;;;;;15.25;12.70;;;;;;;10.18;44.84;98154.56;4984205;28;20026;-77
2023/04/07 09:38:38;;;;;;;16.00;12.60;;;;;;;9.72;44.77;98161.78;4976470;28;20034;-77
2023/04/07 09:41:15;;;;;;;14.93;12.25;;;;;;;10.01;45.78;98159.09;5016805;28;20120;-78
2023/04/07 09:43:46;;;;;;;16.42;13.23;;;;;;;10.32;43.04;98145.94;4992040;28;20046;-78
2023/04/07 09:46:16;;;;;;;15.57;13.35;;;;;;;10.31;43.11;98143.50;4991164;28;20043;-77
2023/04/07 09:48:43;;;;;;;18.75;13.85;;;;;;;10.32;42.88;98145.13;4993949;28;20037;-77
2023/04/07 09:51:12;;;;;;;16.75;14.23;;;;;;;10.13;41.54;98138.34;4973524;28;20053;-77
2023/04/07 09:53:47;;;;;;;17.08;14.10;;;;;;;10.31;43.37;98133.56;4988558;28;20519;-77
2023/04/07 09:56:15;;;;;;;17.20;13.70;;;;;;;10.19;41.00;98142.75;5002267;28;20048;-78
2023/04/07 09:58:41;;;;;;;17.33;13.43;;;;;;;10.58;41.51;98128.31;4985765;28;20026;-77
2023/04/07 10:01:08;;;;;;;17.67;14.13;;;;;;;10.85;40.55;98134.66;4979218;28;20407;-77
2023/04/07 10:03:34;;;;;;;17.35;14.48;;;;;;;10.57;39.86;98137.44;4995133;28;20033;-77
2023/04/07 10:06:00;;;;;;;20.15;14.73;;;;;;;10.74;40.13;98130.19;5002493;28;20404;-77
2023/04/07 10:08:26;;;;;;;18.98;14.27;;;;;;;11.06;39.74;98131.19;4986255;28;20035;-78
2023/04/07 10:10:52;;;;;;;19.35;15.13;;;;;;;10.84;40.36;98122.25;4992871;28;20137;-77
2023/04/07 10:13:18;;;;;;;19.80;14.65;;;;;;;10.68;39.76;98125.78;5002871;28;20065;-77
2023/04/07 10:15:43;;;;;;;22.63;14.88;;;;;;;10.83;39.50;98128.69;4989499;28;20034;-78
2023/04/07 10:18:09;;;;;;;18.08;14.27;;;;;;;11.04;40.11;98129.78;5006222;28;20049;-78
2023/04/07 10:20:38;;;;;;;18.35;14.98;;;;;;;10.94;40.79;98122.41;4992873;28;20037;-77
2023/04/07 10:23:10;;;;;;;19.67;15.27;;;;;;;11.02;40.41;98129.22;5017503;28;20030;-77
2023/04/07 10:25:38;;;;;;;17.77;14.93;;;;;;;11.11;39.48;98128.56;4994037;28;20046;-77
2023/04/07 10:28:07;;;;;;;19.85;14.63;;;;;;;10.92;39.96;98124.50;4967563;28;20046;-77
2023/04/07 10:30:33;;;;;;;22.40;15.82;;;;;;;10.91;39.90;98130.97;4985725;28;20065;-78
2023/04/07 10:32:58;;;;;;;18.95;15.07;;;;;;;11.24;40.14;98127.38;4984446;28;20053;-78
2023/04/07 10:35:24;;;;;;;19.58;15.25;;;;;;;11.73;39.43;98120.19;4972141;28;20041;-78
2023/04/07 10:38:15;;;;;;;20.02;15.77;;;;;;;12.01;39.57;98113.72;4975813;28;20026;-78
2023/04/07 10:40:41;;;;;;;18.40;14.82;;;;;;;12.03;39.12;98125.88;4973560;28;20077;-78
2023/04/07 10:43:08;;;;;;;20.90;15.75;;;;;;;12.00;38.10;98126.38;4982966;28;20112;-78
2023/04/07 10:45:45;;;;;;;19.65;15.57;;;;;;;11.56;38.28;98116.72;4981783;28;20089;-78
2023/04/07 10:48:12;;;;;;;21.75;16.02;;;;;;;11.86;36.93;98125.16;4972034;28;20088;-78
2023/04/07 10:50:37;;;;;;;19.27;15.52;;;;;;;12.17;37.89;98121.72;5013042;28;20028;-78
2023/04/07 10:53:07;;;;;;;19.67;14.93;;;;;;;12.39;36.96;98108.91;4984325;28;20109;-78
2023/04/07 10:55:34;;;;;;;21.02;16.40;;;;;;;12.55;37.52;98104.47;4996069;28;20145;-78
2023/04/07 10:58:16;;;;;;;21.20;15.52;;;;;;;12.09;35.71;98114.06;4977593;28;20601;-77
2023/04/07 11:00:43;;;;;;;19.63;15.32;;;;;;;12.25;36.47;98118.53;4984190;28;20124;-77
2023/04/07 11:03:12;;;;;;;19.60;14.98;;;;;;;12.92;38.99;98109.84;4972653;28;20105;-78
2023/04/07 11:05:41;;;;;;;19.77;15.27;;;;;;;12.84;38.92;98110.31;4983661;28;20063;-77
2023/04/07 11:08:06;;;;;;;17.83;15.40;;;;;;;12.86;36.76;98108.19;4995683;28;20030;-77
2023/04/07 11:10:33;;;;;;;17.70;14.77;;;;;;;13.52;35.69;98099.34;4979943;28;20083;-78
2023/04/07 11:13:06;;;;;;;18.52;15.13;;;;;;;13.10;35.21;98104.03;4995830;28;20105;-77
2023/04/07 11:15:33;;;;;;;17.05;14.05;;;;;;;13.14;35.09;98107.81;4968846;28;20030;-78
2023/04/07 11:18:25;;;;;;;16.92;14.27;;;;;;;12.69;34.21;98102.13;4980587;28;20022;-78
2023/04/07 11:20:54;;;;;;;17.65;14.95;;;;;;;12.64;34.29;98094.81;4981316;28;20054;-77
2023/04/07 11:23:27;;;;;;;18.30;14.50;;;;;;;12.52;32.86;98087.94;4992664;28;20109;-76
2023/04/07 11:26:02;;;;;;;18.77;15.27;;;;;;;12.97;35.45;98090.97;4970851;28;20042;-78